sensor_id;sensor_type;location;lat;lon;timestamp;temperature;humidity
27567;DHT22;15006;48.584;9.186;2023-09-12T00:01:46;14.30;80.10
27567;DHT22;15006;48.584;9.186;2023-09-12T00:04:13;14.20;80.00
27567;DHT22;15006;48.584;9.186;2023-09-12T00:06:39;14.20;79.70
27567;DHT22;15006;48.584;9.186;2023-09-12T00:09:05;14.20;80.00
27567;DHT22;15006;48.584;9.186;2023-09-12T00:11:31;14.20;80.40
27567;DHT22;15006;48.584;9.186;2023-09-12T00:13:58;14.10;80.70
27567;DHT22;15006;48.584;9.186;2023-09-12T00:16:25;14.10;81.10
27567;DHT22;15006;48.584;9.186;2023-09-12T00:18:51;14.10;81.30
27567;DHT22;15006;48.584;9.186;2023-09-12T00:21:17;14.10;81.80
27567;DHT22;15006;48.584;9.186;2023-09-12T00:23:43;14.10;83.30
27567;DHT22;15006;48.584;9.186;2023-09-12T00:26:09;14.00;83.20
27567;DHT22;15006;48.584;9.186;2023-09-12T00:28:35;14.10;83.60
27567;DHT22;15006;48.584;9.186;2023-09-12T00:31:01;14.10;83.90
27567;DHT22;15006;48.584;9.186;2023-09-12T00:33:27;14.00;84.10
27567;DHT22;15006;48.584;9.186;2023-09-12T00:35:53;14.00;83.90
27567;DHT22;15006;48.584;9.186;2023-09-12T00:38:19;14.00;83.60
27567;DHT22;15006;48.584;9.186;2023-09-12T00:40:45;14.00;83.30
27567;DHT22;15006;48.584;9.186;2023-09-12T00:43:11;14.00;82.90
27567;DHT22;15006;48.584;9.186;2023-09-12T00:45:37;14.00;82.50
27567;DHT22;15006;48.584;9.186;2023-09-12T00:48:04;14.00;82.30
27567;DHT22;15006;48.584;9.186;2023-09-12T00:50:31;13.90;82.40
27567;DHT22;15006;48.584;9.186;2023-09-12T00:52:59;13.90;82.40
27567;DHT22;15006;48.584;9.186;2023-09-12T00:55:25;13.90;82.30
27567;DHT22;15006;48.584;9.186;2023-09-12T00:57:51;13.80;82.30
27567;DHT22;15006;48.584;9.186;2023-09-12T01:00:18;13.80;82.80
27567;DHT22;15006;48.584;9.186;2023-09-12T01:02:46;13.80;83.50
27567;DHT22;15006;48.584;9.186;2023-09-12T02:02:32;13.50;89.50
27567;DHT22;15006;48.584;9.186;2023-09-12T02:07:41;13.60;87.00
27567;DHT22;15006;48.584;9.186;2023-09-12T02:10:08;13.60;85.50
27567;DHT22;15006;48.584;9.186;2023-09-12T02:12:35;13.60;85.10
27567;DHT22;15006;48.584;9.186;2023-09-12T02:15:03;13.60;84.60
27567;DHT22;15006;48.584;9.186;2023-09-12T02:17:30;13.60;85.10
27567;DHT22;15006;48.584;9.186;2023-09-12T02:19:56;13.60;86.00
27567;DHT22;15006;48.584;9.186;2023-09-12T02:22:22;13.60;86.70
27567;DHT22;15006;48.584;9.186;2023-09-12T02:24:49;13.60;86.80
27567;DHT22;15006;48.584;9.186;2023-09-12T02:27:16;13.50;86.70
27567;DHT22;15006;48.584;9.186;2023-09-12T02:29:42;13.50;86.40
27567;DHT22;15006;48.584;9.186;2023-09-12T02:32:09;13.50;86.10
27567;DHT22;15006;48.584;9.186;2023-09-12T02:34:35;13.50;85.70
27567;DHT22;15006;48.584;9.186;2023-09-12T02:37:01;13.50;86.50
27567;DHT22;15006;48.584;9.186;2023-09-12T02:39:27;13.50;85.60
27567;DHT22;15006;48.584;9.186;2023-09-12T02:41:53;13.40;85.50
27567;DHT22;15006;48.584;9.186;2023-09-12T02:44:19;13.40;86.10
27567;DHT22;15006;48.584;9.186;2023-09-12T02:46:45;13.40;86.70
27567;DHT22;15006;48.584;9.186;2023-09-12T02:49:11;13.40;87.30
27567;DHT22;15006;48.584;9.186;2023-09-12T02:51:40;13.30;88.00
27567;DHT22;15006;48.584;9.186;2023-09-12T02:54:07;13.30;89.20
27567;DHT22;15006;48.584;9.186;2023-09-12T02:56:32;13.30;88.90
27567;DHT22;15006;48.584;9.186;2023-09-12T02:58:59;13.30;88.90
27567;DHT22;15006;48.584;9.186;2023-09-12T03:01:25;13.40;88.20
27567;DHT22;15006;48.584;9.186;2023-09-12T03:03:54;13.40;87.60
27567;DHT22;15006;48.584;9.186;2023-09-12T03:06:21;13.40;87.20
27567;DHT22;15006;48.584;9.186;2023-09-12T03:08:47;13.30;87.10
27567;DHT22;15006;48.584;9.186;2023-09-12T03:11:14;13.40;87.40
27567;DHT22;15006;48.584;9.186;2023-09-12T03:13:41;13.30;87.20
27567;DHT22;15006;48.584;9.186;2023-09-12T03:16:14;13.30;87.40
27567;DHT22;15006;48.584;9.186;2023-09-12T03:18:40;13.20;87.70
27567;DHT22;15006;48.584;9.186;2023-09-12T03:21:07;13.30;87.10
27567;DHT22;15006;48.584;9.186;2023-09-12T03:23:33;13.20;87.30
27567;DHT22;15006;48.584;9.186;2023-09-12T03:26:05;13.20;87.30
27567;DHT22;15006;48.584;9.186;2023-09-12T03:28:32;13.20;87.60
27567;DHT22;15006;48.584;9.186;2023-09-12T03:31:09;13.10;87.20
27567;DHT22;15006;48.584;9.186;2023-09-12T03:33:43;13.10;88.30
27567;DHT22;15006;48.584;9.186;2023-09-12T03:36:13;13.10;88.60
27567;DHT22;15006;48.584;9.186;2023-09-12T03:38:39;13.00;88.10
27567;DHT22;15006;48.584;9.186;2023-09-12T03:41:05;13.00;88.00
27567;DHT22;15006;48.584;9.186;2023-09-12T03:43:32;13.00;87.90
27567;DHT22;15006;48.584;9.186;2023-09-12T03:45:59;13.00;87.80
27567;DHT22;15006;48.584;9.186;2023-09-12T03:48:25;13.00;87.40
27567;DHT22;15006;48.584;9.186;2023-09-12T03:50:51;13.00;87.30
27567;DHT22;15006;48.584;9.186;2023-09-12T03:53:17;12.90;88.00
27567;DHT22;15006;48.584;9.186;2023-09-12T03:55:43;12.90;89.10
27567;DHT22;15006;48.584;9.186;2023-09-12T03:58:09;12.90;89.80
27567;DHT22;15006;48.584;9.186;2023-09-12T04:00:35;12.90;89.70
27567;DHT22;15006;48.584;9.186;2023-09-12T04:03:01;13.00;89.60
27567;DHT22;15006;48.584;9.186;2023-09-12T04:05:27;12.90;89.20
27567;DHT22;15006;48.584;9.186;2023-09-12T04:07:53;12.90;88.80
27567;DHT22;15006;48.584;9.186;2023-09-12T04:10:22;12.90;88.60
27567;DHT22;15006;48.584;9.186;2023-09-12T04:12:48;12.90;89.20
27567;DHT22;15006;48.584;9.186;2023-09-12T04:15:14;12.90;88.70
27567;DHT22;15006;48.584;9.186;2023-09-12T04:17:40;12.80;89.30
27567;DHT22;15006;48.584;9.186;2023-09-12T04:20:06;12.80;90.00
27567;DHT22;15006;48.584;9.186;2023-09-12T04:22:33;12.80;90.10
27567;DHT22;15006;48.584;9.186;2023-09-12T04:24:59;12.70;90.20
27567;DHT22;15006;48.584;9.186;2023-09-12T04:27:25;12.80;90.20
27567;DHT22;15006;48.584;9.186;2023-09-12T04:29:51;12.70;90.10
27567;DHT22;15006;48.584;9.186;2023-09-12T04:32:17;12.70;89.90
27567;DHT22;15006;48.584;9.186;2023-09-12T04:34:49;12.80;90.00
27567;DHT22;15006;48.584;9.186;2023-09-12T04:37:15;12.70;90.20
27567;DHT22;15006;48.584;9.186;2023-09-12T04:39:42;12.70;90.20
27567;DHT22;15006;48.584;9.186;2023-09-12T04:42:08;12.70;90.10
27567;DHT22;15006;48.584;9.186;2023-09-12T04:44:39;12.70;90.00
27567;DHT22;15006;48.584;9.186;2023-09-12T04:47:06;12.70;90.20
27567;DHT22;15006;48.584;9.186;2023-09-12T04:49:32;12.70;89.90
27567;DHT22;15006;48.584;9.186;2023-09-12T04:51:58;12.60;89.70
27567;DHT22;15006;48.584;9.186;2023-09-12T04:54:24;12.60;89.70
27567;DHT22;15006;48.584;9.186;2023-09-12T04:56:50;12.60;89.70
27567;DHT22;15006;48.584;9.186;2023-09-12T04:59:16;12.60;89.90
27567;DHT22;15006;48.584;9.186;2023-09-12T05:01:42;12.60;89.90
27567;DHT22;15006;48.584;9.186;2023-09-12T05:04:08;12.60;89.70
27567;DHT22;15006;48.584;9.186;2023-09-12T05:06:35;12.60;89.50
27567;DHT22;15006;48.584;9.186;2023-09-12T05:09:01;12.60;89.50
27567;DHT22;15006;48.584;9.186;2023-09-12T05:11:28;12.60;89.80
27567;DHT22;15006;48.584;9.186;2023-09-12T05:13:54;12.60;90.00
27567;DHT22;15006;48.584;9.186;2023-09-12T05:16:20;12.60;90.40
27567;DHT22;15006;48.584;9.186;2023-09-12T05:18:46;12.60;90.60
27567;DHT22;15006;48.584;9.186;2023-09-12T05:21:15;12.60;90.50
27567;DHT22;15006;48.584;9.186;2023-09-12T05:23:41;12.60;90.70
27567;DHT22;15006;48.584;9.186;2023-09-12T05:26:07;12.60;91.00
27567;DHT22;15006;48.584;9.186;2023-09-12T05:28:34;12.70;91.40
27567;DHT22;15006;48.584;9.186;2023-09-12T05:31:00;12.70;91.70
27567;DHT22;15006;48.584;9.186;2023-09-12T05:33:26;12.70;91.90
27567;DHT22;15006;48.584;9.186;2023-09-12T05:35:52;12.80;92.10
27567;DHT22;15006;48.584;9.186;2023-09-12T05:38:18;12.90;92.30
27567;DHT22;15006;48.584;9.186;2023-09-12T05:40:44;13.00;92.80
27567;DHT22;15006;48.584;9.186;2023-09-12T05:43:10;13.00;92.90
27567;DHT22;15006;48.584;9.186;2023-09-12T05:45:35;13.20;93.30
27567;DHT22;15006;48.584;9.186;2023-09-12T05:48:01;13.30;93.50
27567;DHT22;15006;48.584;9.186;2023-09-12T05:50:28;13.40;93.60
27567;DHT22;15006;48.584;9.186;2023-09-12T05:52:54;13.50;93.70
27567;DHT22;15006;48.584;9.186;2023-09-12T05:55:20;13.60;94.00
27567;DHT22;15006;48.584;9.186;2023-09-12T05:57:48;13.80;94.10
27567;DHT22;15006;48.584;9.186;2023-09-12T06:00:18;13.90;94.00
27567;DHT22;15006;48.584;9.186;2023-09-12T06:02:45;14.10;94.20
27567;DHT22;15006;48.584;9.186;2023-09-12T06:05:11;14.30;94.20
27567;DHT22;15006;48.584;9.186;2023-09-12T06:07:37;14.40;94.10
27567;DHT22;15006;48.584;9.186;2023-09-12T06:10:09;14.60;94.00
27567;DHT22;15006;48.584;9.186;2023-09-12T06:12:35;14.90;94.00
27567;DHT22;15006;48.584;9.186;2023-09-12T06:15:02;15.10;94.00
27567;DHT22;15006;48.584;9.186;2023-09-12T06:17:30;15.30;94.00
27567;DHT22;15006;48.584;9.186;2023-09-12T06:19:56;15.60;93.60
27567;DHT22;15006;48.584;9.186;2023-09-12T06:22:22;15.80;93.50
27567;DHT22;15006;48.584;9.186;2023-09-12T06:24:50;16.10;92.90
27567;DHT22;15006;48.584;9.186;2023-09-12T06:27:16;16.30;92.40
27567;DHT22;15006;48.584;9.186;2023-09-12T06:29:48;16.50;92.00
27567;DHT22;15006;48.584;9.186;2023-09-12T06:32:18;16.70;91.30
27567;DHT22;15006;48.584;9.186;2023-09-12T06:34:44;16.90;90.70
27567;DHT22;15006;48.584;9.186;2023-09-12T06:37:13;17.00;90.00
27567;DHT22;15006;48.584;9.186;2023-09-12T06:39:39;17.20;88.80
27567;DHT22;15006;48.584;9.186;2023-09-12T06:42:06;17.30;87.90
27567;DHT22;15006;48.584;9.186;2023-09-12T06:44:32;17.40;86.70
27567;DHT22;15006;48.584;9.186;2023-09-12T06:46:58;17.50;85.80
27567;DHT22;15006;48.584;9.186;2023-09-12T06:49:24;17.50;85.00
27567;DHT22;15006;48.584;9.186;2023-09-12T06:51:49;17.60;84.50
27567;DHT22;15006;48.584;9.186;2023-09-12T06:54:15;17.60;84.20
27567;DHT22;15006;48.584;9.186;2023-09-12T06:56:41;17.60;84.30
27567;DHT22;15006;48.584;9.186;2023-09-12T06:59:08;17.60;83.90
27567;DHT22;15006;48.584;9.186;2023-09-12T07:01:34;17.70;84.10
27567;DHT22;15006;48.584;9.186;2023-09-12T07:04:00;17.70;84.30
27567;DHT22;15006;48.584;9.186;2023-09-12T07:06:27;17.70;83.90
27567;DHT22;15006;48.584;9.186;2023-09-12T07:08:53;17.70;83.80
27567;DHT22;15006;48.584;9.186;2023-09-12T07:11:19;17.70;83.20
27567;DHT22;15006;48.584;9.186;2023-09-12T07:13:45;17.70;82.70
27567;DHT22;15006;48.584;9.186;2023-09-12T07:16:12;17.70;82.30
27567;DHT22;15006;48.584;9.186;2023-09-12T07:18:38;17.70;82.20
27567;DHT22;15006;48.584;9.186;2023-09-12T07:21:05;17.70;82.30
27567;DHT22;15006;48.584;9.186;2023-09-12T07:23:32;17.70;82.20
27567;DHT22;15006;48.584;9.186;2023-09-12T07:25:58;17.70;81.80
27567;DHT22;15006;48.584;9.186;2023-09-12T07:28:25;17.70;81.40
27567;DHT22;15006;48.584;9.186;2023-09-12T07:30:53;17.70;81.50
27567;DHT22;15006;48.584;9.186;2023-09-12T07:33:19;17.70;81.50
27567;DHT22;15006;48.584;9.186;2023-09-12T07:35:47;17.70;81.50
27567;DHT22;15006;48.584;9.186;2023-09-12T07:38:13;17.70;81.90
27567;DHT22;15006;48.584;9.186;2023-09-12T07:40:42;17.70;82.30
27567;DHT22;15006;48.584;9.186;2023-09-12T07:43:09;17.80;83.10
27567;DHT22;15006;48.584;9.186;2023-09-12T07:45:35;17.90;82.70
27567;DHT22;15006;48.584;9.186;2023-09-12T07:48:09;18.00;82.30
27567;DHT22;15006;48.584;9.186;2023-09-12T07:50:37;18.20;81.80
27567;DHT22;15006;48.584;9.186;2023-09-12T07:53:06;18.30;81.40
27567;DHT22;15006;48.584;9.186;2023-09-12T07:55:36;18.50;81.30
27567;DHT22;15006;48.584;9.186;2023-09-12T07:58:14;18.60;81.00
27567;DHT22;15006;48.584;9.186;2023-09-12T08:00:47;18.80;80.20
27567;DHT22;15006;48.584;9.186;2023-09-12T08:03:13;19.00;79.70
27567;DHT22;15006;48.584;9.186;2023-09-12T08:05:40;19.20;79.90
27567;DHT22;15006;48.584;9.186;2023-09-12T08:08:06;19.40;78.50
27567;DHT22;15006;48.584;9.186;2023-09-12T08:10:32;19.70;77.70
27567;DHT22;15006;48.584;9.186;2023-09-12T08:12:58;19.80;76.50
27567;DHT22;15006;48.584;9.186;2023-09-12T08:15:24;20.10;75.60
27567;DHT22;15006;48.584;9.186;2023-09-12T08:17:50;20.20;74.30
27567;DHT22;15006;48.584;9.186;2023-09-12T08:20:19;20.40;73.80
27567;DHT22;15006;48.584;9.186;2023-09-12T08:22:46;20.50;73.40
27567;DHT22;15006;48.584;9.186;2023-09-12T08:25:12;20.80;72.70
27567;DHT22;15006;48.584;9.186;2023-09-12T08:27:40;21.00;71.80
27567;DHT22;15006;48.584;9.186;2023-09-12T08:30:08;21.20;71.00
27567;DHT22;15006;48.584;9.186;2023-09-12T08:32:34;21.30;70.40
27567;DHT22;15006;48.584;9.186;2023-09-12T08:35:00;21.50;70.00
27567;DHT22;15006;48.584;9.186;2023-09-12T08:37:27;21.80;68.40
27567;DHT22;15006;48.584;9.186;2023-09-12T08:39:52;21.90;67.30
27567;DHT22;15006;48.584;9.186;2023-09-12T08:42:22;22.10;67.20
27567;DHT22;15006;48.584;9.186;2023-09-12T08:44:49;22.10;65.40
27567;DHT22;15006;48.584;9.186;2023-09-12T08:47:15;22.20;65.10
27567;DHT22;15006;48.584;9.186;2023-09-12T08:49:42;22.30;65.30
27567;DHT22;15006;48.584;9.186;2023-09-12T08:52:09;22.40;65.60
27567;DHT22;15006;48.584;9.186;2023-09-12T08:54:35;22.50;65.10
27567;DHT22;15006;48.584;9.186;2023-09-12T08:57:02;22.70;65.70
27567;DHT22;15006;48.584;9.186;2023-09-12T08:59:31;23.00;65.80
27567;DHT22;15006;48.584;9.186;2023-09-12T09:01:58;23.40;64.90
27567;DHT22;15006;48.584;9.186;2023-09-12T09:04:26;23.70;63.60
27567;DHT22;15006;48.584;9.186;2023-09-12T09:06:57;24.10;62.10
27567;DHT22;15006;48.584;9.186;2023-09-12T09:09:23;24.40;61.10
27567;DHT22;15006;48.584;9.186;2023-09-12T09:11:50;24.60;59.20
27567;DHT22;15006;48.584;9.186;2023-09-12T09:14:16;24.80;58.20
27567;DHT22;15006;48.584;9.186;2023-09-12T09:16:42;25.00;57.10
27567;DHT22;15006;48.584;9.186;2023-09-12T09:19:08;25.10;56.60
27567;DHT22;15006;48.584;9.186;2023-09-12T09:21:38;25.30;56.80
27567;DHT22;15006;48.584;9.186;2023-09-12T09:24:09;25.50;55.40
27567;DHT22;15006;48.584;9.186;2023-09-12T09:26:51;25.70;55.70
27567;DHT22;15006;48.584;9.186;2023-09-12T09:29:24;25.90;53.30
27567;DHT22;15006;48.584;9.186;2023-09-12T09:31:51;26.10;55.00
27567;DHT22;15006;48.584;9.186;2023-09-12T09:34:19;26.30;55.00
27567;DHT22;15006;48.584;9.186;2023-09-12T09:36:49;26.60;53.80
27567;DHT22;15006;48.584;9.186;2023-09-12T09:39:21;26.80;52.90
27567;DHT22;15006;48.584;9.186;2023-09-12T09:41:53;27.00;52.60
27567;DHT22;15006;48.584;9.186;2023-09-12T09:44:24;27.20;51.40
27567;DHT22;15006;48.584;9.186;2023-09-12T09:46:55;27.40;51.90
27567;DHT22;15006;48.584;9.186;2023-09-12T09:49:26;27.70;50.90
27567;DHT22;15006;48.584;9.186;2023-09-12T09:51:54;27.90;50.80
27567;DHT22;15006;48.584;9.186;2023-09-12T09:54:25;28.10;50.10
27567;DHT22;15006;48.584;9.186;2023-09-12T09:56:57;28.40;49.60
27567;DHT22;15006;48.584;9.186;2023-09-12T09:59:25;28.60;48.30
27567;DHT22;15006;48.584;9.186;2023-09-12T10:01:59;28.90;48.90
27567;DHT22;15006;48.584;9.186;2023-09-12T10:04:28;29.20;47.80
27567;DHT22;15006;48.584;9.186;2023-09-12T10:06:56;29.60;46.70
27567;DHT22;15006;48.584;9.186;2023-09-12T10:09:26;29.80;47.20
27567;DHT22;15006;48.584;9.186;2023-09-12T10:11:55;30.20;45.70
27567;DHT22;15006;48.584;9.186;2023-09-12T10:14:24;30.40;44.30
27567;DHT22;15006;48.584;9.186;2023-09-12T10:17:00;30.50;44.00
27567;DHT22;15006;48.584;9.186;2023-09-12T10:19:33;30.60;42.50
27567;DHT22;15006;48.584;9.186;2023-09-12T10:22:10;30.70;42.30
27567;DHT22;15006;48.584;9.186;2023-09-12T10:24:49;30.70;42.00
27567;DHT22;15006;48.584;9.186;2023-09-12T10:27:18;30.80;42.40
27567;DHT22;15006;48.584;9.186;2023-09-12T10:29:44;30.90;42.10
27567;DHT22;15006;48.584;9.186;2023-09-12T10:32:14;31.00;41.70
27567;DHT22;15006;48.584;9.186;2023-09-12T10:34:42;31.20;41.50
27567;DHT22;15006;48.584;9.186;2023-09-12T10:37:11;31.40;42.10
27567;DHT22;15006;48.584;9.186;2023-09-12T10:39:39;31.70;43.70
27567;DHT22;15006;48.584;9.186;2023-09-12T10:42:07;31.90;42.00
27567;DHT22;15006;48.584;9.186;2023-09-12T10:44:33;32.20;40.70
27567;DHT22;15006;48.584;9.186;2023-09-12T10:47:00;32.40;39.30
27567;DHT22;15006;48.584;9.186;2023-09-12T10:49:28;32.50;39.30
27567;DHT22;15006;48.584;9.186;2023-09-12T10:51:54;32.70;39.70
27567;DHT22;15006;48.584;9.186;2023-09-12T10:54:24;32.90;39.00
27567;DHT22;15006;48.584;9.186;2023-09-12T10:59:30;33.10;37.50
27567;DHT22;15006;48.584;9.186;2023-09-12T11:02:31;33.30;37.60
27567;DHT22;15006;48.584;9.186;2023-09-12T11:04:59;33.40;37.50
27567;DHT22;15006;48.584;9.186;2023-09-12T11:12:45;34.20;35.30
27567;DHT22;15006;48.584;9.186;2023-09-12T11:15:13;34.40;36.10
27567;DHT22;15006;48.584;9.186;2023-09-12T11:17:42;34.50;32.90
27567;DHT22;15006;48.584;9.186;2023-09-12T11:20:11;34.60;32.10
27567;DHT22;15006;48.584;9.186;2023-09-12T11:22:42;34.70;32.40
27567;DHT22;15006;48.584;9.186;2023-09-12T11:25:20;34.80;32.60
27567;DHT22;15006;48.584;9.186;2023-09-12T11:30:24;35.10;33.20
27567;DHT22;15006;48.584;9.186;2023-09-12T11:32:52;35.30;32.80
27567;DHT22;15006;48.584;9.186;2023-09-12T11:35:28;35.60;31.60
27567;DHT22;15006;48.584;9.186;2023-09-12T11:37:56;36.00;31.00
27567;DHT22;15006;48.584;9.186;2023-09-12T11:42:59;36.50;29.40
27567;DHT22;15006;48.584;9.186;2023-09-12T11:45:25;36.80;29.60
27567;DHT22;15006;48.584;9.186;2023-09-12T11:47:51;37.00;29.60
27567;DHT22;15006;48.584;9.186;2023-09-12T11:50:31;37.30;29.10
27567;DHT22;15006;48.584;9.186;2023-09-12T11:53:09;37.60;28.20
27567;DHT22;15006;48.584;9.186;2023-09-12T11:55:44;37.90;27.60
27567;DHT22;15006;48.584;9.186;2023-09-12T11:58:13;38.20;28.10
27567;DHT22;15006;48.584;9.186;2023-09-12T12:00:48;38.40;28.00
27567;DHT22;15006;48.584;9.186;2023-09-12T12:03:19;38.70;27.20
27567;DHT22;15006;48.584;9.186;2023-09-12T12:05:49;38.90;27.10
27567;DHT22;15006;48.584;9.186;2023-09-12T12:08:17;39.10;27.50
27567;DHT22;15006;48.584;9.186;2023-09-12T12:10:43;39.10;26.80
27567;DHT22;15006;48.584;9.186;2023-09-12T12:13:19;39.00;26.60
27567;DHT22;15006;48.584;9.186;2023-09-12T12:15:46;38.70;26.50
27567;DHT22;15006;48.584;9.186;2023-09-12T12:18:13;38.40;27.00
27567;DHT22;15006;48.584;9.186;2023-09-12T12:20:39;38.30;27.20
27567;DHT22;15006;48.584;9.186;2023-09-12T12:23:05;38.20;26.80
27567;DHT22;15006;48.584;9.186;2023-09-12T12:25:33;38.20;27.70
27567;DHT22;15006;48.584;9.186;2023-09-12T12:28:00;38.20;27.80
27567;DHT22;15006;48.584;9.186;2023-09-12T12:30:31;38.30;27.80
27567;DHT22;15006;48.584;9.186;2023-09-12T12:33:01;38.30;27.70
27567;DHT22;15006;48.584;9.186;2023-09-12T12:35:31;38.30;26.70
27567;DHT22;15006;48.584;9.186;2023-09-12T12:37:58;38.40;27.10
27567;DHT22;15006;48.584;9.186;2023-09-12T12:40:24;38.40;26.90
27567;DHT22;15006;48.584;9.186;2023-09-12T12:42:51;38.40;27.00
27567;DHT22;15006;48.584;9.186;2023-09-12T12:45:19;38.40;27.20
27567;DHT22;15006;48.584;9.186;2023-09-12T12:47:50;38.60;27.40
27567;DHT22;15006;48.584;9.186;2023-09-12T12:50:18;38.80;26.80
27567;DHT22;15006;48.584;9.186;2023-09-12T12:52:48;38.90;26.70
27567;DHT22;15006;48.584;9.186;2023-09-12T12:55:15;39.00;26.40
27567;DHT22;15006;48.584;9.186;2023-09-12T12:57:43;39.20;25.40
27567;DHT22;15006;48.584;9.186;2023-09-12T13:00:15;39.30;24.60
27567;DHT22;15006;48.584;9.186;2023-09-12T13:02:43;39.20;24.10
27567;DHT22;15006;48.584;9.186;2023-09-12T13:05:25;39.00;24.20
27567;DHT22;15006;48.584;9.186;2023-09-12T13:07:58;38.90;24.30
27567;DHT22;15006;48.584;9.186;2023-09-12T13:10:24;38.80;24.90
27567;DHT22;15006;48.584;9.186;2023-09-12T13:12:51;38.40;25.00
27567;DHT22;15006;48.584;9.186;2023-09-12T13:15:17;38.10;25.30
27567;DHT22;15006;48.584;9.186;2023-09-12T13:17:44;37.80;26.50
27567;DHT22;15006;48.584;9.186;2023-09-12T13:20:10;37.50;26.00
27567;DHT22;15006;48.584;9.186;2023-09-12T13:22:37;37.20;26.20
27567;DHT22;15006;48.584;9.186;2023-09-12T13:25:05;36.90;26.90
27567;DHT22;15006;48.584;9.186;2023-09-12T13:27:31;36.70;26.60
27567;DHT22;15006;48.584;9.186;2023-09-12T13:29:58;36.50;26.90
27567;DHT22;15006;48.584;9.186;2023-09-12T13:32:24;36.40;26.80
27567;DHT22;15006;48.584;9.186;2023-09-12T13:34:50;36.40;27.00
27567;DHT22;15006;48.584;9.186;2023-09-12T13:37:16;36.40;27.40
27567;DHT22;15006;48.584;9.186;2023-09-12T13:39:44;36.60;28.30
27567;DHT22;15006;48.584;9.186;2023-09-12T13:42:17;36.80;27.20
27567;DHT22;15006;48.584;9.186;2023-09-12T13:44:49;37.10;27.20
27567;DHT22;15006;48.584;9.186;2023-09-12T13:47:16;37.40;26.70
27567;DHT22;15006;48.584;9.186;2023-09-12T13:49:49;37.60;27.30
27567;DHT22;15006;48.584;9.186;2023-09-12T13:52:21;37.80;27.00
27567;DHT22;15006;48.584;9.186;2023-09-12T13:54:48;38.00;26.30
27567;DHT22;15006;48.584;9.186;2023-09-12T13:57:15;38.10;26.80
27567;DHT22;15006;48.584;9.186;2023-09-12T13:59:42;38.20;27.20
27567;DHT22;15006;48.584;9.186;2023-09-12T14:02:08;38.10;26.10
27567;DHT22;15006;48.584;9.186;2023-09-12T14:04:34;37.90;26.20
27567;DHT22;15006;48.584;9.186;2023-09-12T14:07:00;37.80;26.90
27567;DHT22;15006;48.584;9.186;2023-09-12T14:09:27;37.60;26.10
27567;DHT22;15006;48.584;9.186;2023-09-12T14:11:53;37.40;26.20
27567;DHT22;15006;48.584;9.186;2023-09-12T14:14:19;36.90;26.50
27567;DHT22;15006;48.584;9.186;2023-09-12T14:16:45;36.20;28.00
27567;DHT22;15006;48.584;9.186;2023-09-12T14:19:11;35.60;28.10
27567;DHT22;15006;48.584;9.186;2023-09-12T14:21:37;34.90;29.10
27567;DHT22;15006;48.584;9.186;2023-09-12T14:24:04;34.30;30.00
27567;DHT22;15006;48.584;9.186;2023-09-12T14:26:31;33.70;30.90
27567;DHT22;15006;48.584;9.186;2023-09-12T14:28:57;33.10;32.50
27567;DHT22;15006;48.584;9.186;2023-09-12T14:31:23;32.50;31.80
27567;DHT22;15006;48.584;9.186;2023-09-12T14:33:49;32.00;32.40
27567;DHT22;15006;48.584;9.186;2023-09-12T14:36:18;31.40;35.90
27567;DHT22;15006;48.584;9.186;2023-09-12T14:38:44;30.90;37.20
27567;DHT22;15006;48.584;9.186;2023-09-12T14:41:12;30.50;38.30
27567;DHT22;15006;48.584;9.186;2023-09-12T14:43:39;30.10;38.20
27567;DHT22;15006;48.584;9.186;2023-09-12T14:46:05;29.70;38.40
27567;DHT22;15006;48.584;9.186;2023-09-12T14:48:34;29.30;40.60
27567;DHT22;15006;48.584;9.186;2023-09-12T14:51:02;28.90;40.10
27567;DHT22;15006;48.584;9.186;2023-09-12T14:53:28;28.60;38.90
27567;DHT22;15006;48.584;9.186;2023-09-12T14:55:54;28.30;40.20
27567;DHT22;15006;48.584;9.186;2023-09-12T14:58:20;28.10;40.80
27567;DHT22;15006;48.584;9.186;2023-09-12T15:00:48;27.80;42.40
27567;DHT22;15006;48.584;9.186;2023-09-12T15:03:14;27.60;41.20
27567;DHT22;15006;48.584;9.186;2023-09-12T15:05:40;27.40;41.00
27567;DHT22;15006;48.584;9.186;2023-09-12T15:08:06;27.20;41.40
27567;DHT22;15006;48.584;9.186;2023-09-12T15:10:32;27.10;41.90
27567;DHT22;15006;48.584;9.186;2023-09-12T15:12:58;27.10;42.00
27567;DHT22;15006;48.584;9.186;2023-09-12T15:15:24;26.90;42.10
27567;DHT22;15006;48.584;9.186;2023-09-12T15:17:52;26.90;42.10
27567;DHT22;15006;48.584;9.186;2023-09-12T15:20:18;26.90;41.90
27567;DHT22;15006;48.584;9.186;2023-09-12T15:22:44;26.80;42.00
27567;DHT22;15006;48.584;9.186;2023-09-12T15:25:10;26.80;42.20
27567;DHT22;15006;48.584;9.186;2023-09-12T15:27:36;26.80;41.90
27567;DHT22;15006;48.584;9.186;2023-09-12T15:30:03;26.70;42.10
27567;DHT22;15006;48.584;9.186;2023-09-12T15:32:31;26.70;43.90
27567;DHT22;15006;48.584;9.186;2023-09-12T15:34:57;26.70;43.40
27567;DHT22;15006;48.584;9.186;2023-09-12T15:37:23;26.60;44.10
27567;DHT22;15006;48.584;9.186;2023-09-12T15:39:50;26.50;44.80
27567;DHT22;15006;48.584;9.186;2023-09-12T15:42:16;26.40;46.40
27567;DHT22;15006;48.584;9.186;2023-09-12T15:44:43;26.30;46.90
27567;DHT22;15006;48.584;9.186;2023-09-12T15:47:09;26.20;47.80
27567;DHT22;15006;48.584;9.186;2023-09-12T15:49:35;26.10;48.50
27567;DHT22;15006;48.584;9.186;2023-09-12T15:52:02;26.00;47.30
27567;DHT22;15006;48.584;9.186;2023-09-12T15:54:29;25.90;48.50
27567;DHT22;15006;48.584;9.186;2023-09-12T15:56:59;25.70;49.20
27567;DHT22;15006;48.584;9.186;2023-09-12T15:59:28;25.50;48.80
27567;DHT22;15006;48.584;9.186;2023-09-12T16:01:55;25.40;49.40
27567;DHT22;15006;48.584;9.186;2023-09-12T16:04:40;25.30;49.50
27567;DHT22;15006;48.584;9.186;2023-09-12T16:07:06;25.10;51.50
27567;DHT22;15006;48.584;9.186;2023-09-12T16:09:33;24.90;50.20
27567;DHT22;15006;48.584;9.186;2023-09-12T16:11:59;24.80;51.10
27567;DHT22;15006;48.584;9.186;2023-09-12T16:14:28;24.70;51.20
27567;DHT22;15006;48.584;9.186;2023-09-12T16:16:54;24.50;52.10
27567;DHT22;15006;48.584;9.186;2023-09-12T16:19:20;24.40;52.40
27567;DHT22;15006;48.584;9.186;2023-09-12T16:21:46;24.30;50.60
27567;DHT22;15006;48.584;9.186;2023-09-12T16:24:12;24.40;50.90
27567;DHT22;15006;48.584;9.186;2023-09-12T16:26:38;24.40;51.10
27567;DHT22;15006;48.584;9.186;2023-09-12T16:29:04;24.50;51.70
27567;DHT22;15006;48.584;9.186;2023-09-12T16:31:30;24.60;51.60
27567;DHT22;15006;48.584;9.186;2023-09-12T16:33:56;24.60;50.80
27567;DHT22;15006;48.584;9.186;2023-09-12T16:36:22;24.60;50.80
27567;DHT22;15006;48.584;9.186;2023-09-12T16:38:48;24.60;51.00
27567;DHT22;15006;48.584;9.186;2023-09-12T16:41:14;24.50;50.60
27567;DHT22;15006;48.584;9.186;2023-09-12T16:43:40;24.40;50.30
27567;DHT22;15006;48.584;9.186;2023-09-12T16:46:06;24.30;50.60